Time;durP1;ratioP1;P1;durP2;ratioP2;P2;SDS_P1;SDS_P2;PMS_P1;PMS_P2;Temp;Humidity;BMP_temperature;BMP_pressure;BME280_temperature;BME280_humidity;BME280_pressure;Samples;Min_cycle;Max_cycle;Signal;HPM_P1;HPM_P2
2023/10/15 04:01:16;;;;;;;3.77;1.43;;;11.10;80.80;;;;;;5692234;23;21057;-73
2023/10/15 04:03:47;;;;;;;2.80;1.20;;;11.00;80.90;;;;;;4974277;28;20433;-73
2023/10/15 04:06:15;;;;;;;3.00;1.30;;;11.00;80.60;;;;;;4974160;28;20556;-73
2023/10/15 04:08:59;;;;;;;4.40;1.20;;;11.00;80.80;;;;;;4974692;28;20449;-73
2023/10/15 04:11:30;;;;;;;3.27;1.33;;;10.90;80.70;;;;;;4974139;28;20561;-74
2023/10/15 04:13:58;;;;;;;2.87;1.43;;;10.90;81.20;;;;;;5088412;23;20501;-75
2023/10/15 04:16:27;;;;;;;2.20;1.10;;;10.90;81.20;;;;;;4974444;28;20526;-75
2023/10/15 04:18:53;;;;;;;1.90;1.00;;;10.90;81.30;;;;;;4974203;28;20481;-75
2023/10/15 04:21:20;;;;;;;3.50;1.23;;;10.80;81.30;;;;;;4974324;28;20442;-75
2023/10/15 04:23:52;;;;;;;3.63;1.00;;;10.80;81.30;;;;;;4974178;28;20504;-75
2023/10/15 04:26:23;;;;;;;4.73;1.20;;;10.70;81.60;;;;;;4974091;28;20497;-75
2023/10/15 04:28:52;;;;;;;2.03;0.90;;;10.70;82.10;;;;;;4974223;28;20430;-75
2023/10/15 04:31:22;;;;;;;4.77;1.50;;;10.50;81.80;;;;;;4974793;28;20454;-75
2023/10/15 04:33:52;;;;;;;2.40;1.20;;;10.50;82.70;;;;;;4974396;28;20852;-75
2023/10/15 04:36:18;;;;;;;2.33;1.00;;;10.60;82.40;;;;;;4976960;28;20490;-75
2023/10/15 04:38:47;;;;;;;2.00;1.20;;;10.70;82.30;;;;;;4977695;28;20492;-74
2023/10/15 04:41:21;;;;;;;2.10;1.00;;;10.70;82.10;;;;;;4977457;28;20943;-75
2023/10/15 04:43:48;;;;;;;3.27;1.20;;;10.60;82.00;;;;;;4977526;28;20478;-75
2023/10/15 04:46:17;;;;;;;2.23;1.03;;;10.50;82.60;;;;;;4977526;28;20489;-75
2023/10/15 04:48:45;;;;;;;2.70;1.23;;;10.60;82.70;;;;;;4978016;28;20501;-75
2023/10/15 04:51:13;;;;;;;3.00;1.40;;;10.70;82.30;;;;;;4977417;28;20486;-75
2023/10/15 04:53:44;;;;;;;2.87;1.10;;;10.60;82.60;;;;;;4977361;28;20465;-75
2023/10/15 04:56:12;;;;;;;2.63;1.10;;;10.50;82.70;;;;;;4977510;28;20521;-75
2023/10/15 04:58:39;;;;;;;2.57;1.10;;;10.60;83.30;;;;;;4977624;28;20456;-75
2023/10/15 05:01:07;;;;;;;2.73;1.20;;;10.50;83.00;;;;;;4977336;28;20453;-75
2023/10/15 05:03:34;;;;;;;3.10;1.20;;;10.30;83.70;;;;;;4977041;28;20586;-75
2023/10/15 05:06:02;;;;;;;2.60;1.30;;;10.30;84.10;;;;;;4977155;28;20450;-75
2023/10/15 05:08:30;;;;;;;2.77;1.20;;;10.30;84.50;;;;;;4977185;28;20445;-75
2023/10/15 05:10:57;;;;;;;2.50;1.10;;;10.30;84.50;;;;;;4976937;28;20500;-75
2023/10/15 05:13:25;;;;;;;2.60;1.10;;;10.30;84.50;;;;;;4976695;28;20477;-75
2023/10/15 05:15:52;;;;;;;1.90;1.03;;;10.30;84.90;;;;;;4977153;28;20434;-74
2023/10/15 05:18:20;;;;;;;2.37;1.23;;;10.20;85.00;;;;;;4976840;28;20442;-75
2023/10/15 05:20:48;;;;;;;2.30;1.20;;;10.10;85.40;;;;;;4976908;28;20454;-74
2023/10/15 05:23:16;;;;;;;3.43;1.40;;;10.20;85.80;;;;;;4976839;28;20453;-74
2023/10/15 05:25:44;;;;;;;2.67;1.10;;;10.20;85.30;;;;;;4976614;28;20446;-73
2023/10/15 05:28:14;;;;;;;3.17;1.23;;;10.10;85.30;;;;;;4976644;28;20492;-75
2023/10/15 05:30:41;;;;;;;2.70;1.60;;;10.20;85.80;;;;;;4976710;28;20446;-75
2023/10/15 05:33:08;;;;;;;2.30;1.20;;;10.30;85.70;;;;;;4976718;28;20472;-75
2023/10/15 05:35:37;;;;;;;2.73;1.17;;;10.40;85.40;;;;;;4976628;28;20481;-75
2023/10/15 05:38:04;;;;;;;2.20;1.17;;;10.40;84.70;;;;;;4976587;28;20442;-75
2023/10/15 05:40:31;;;;;;;3.23;1.07;;;10.40;85.10;;;;;;4976428;28;20481;-74
2023/10/15 05:42:59;;;;;;;2.90;1.43;;;10.30;84.80;;;;;;4976182;28;20446;-75
2023/10/15 05:45:26;;;;;;;2.20;1.10;;;10.30;85.10;;;;;;4976020;28;21002;-75
2023/10/15 05:47:52;;;;;;;2.70;1.10;;;10.30;85.10;;;;;;4976273;28;20485;-74
2023/10/15 05:50:19;;;;;;;2.93;1.33;;;10.40;85.50;;;;;;4976307;28;20446;-75
2023/10/15 05:52:46;;;;;;;2.07;1.10;;;10.40;85.20;;;;;;4976254;28;20450;-75
2023/10/15 05:55:13;;;;;;;4.40;1.50;;;10.50;85.10;;;;;;4976192;28;20497;-75
2023/10/15 05:57:40;;;;;;;3.00;1.60;;;10.40;85.10;;;;;;4976241;28;20443;-76
2023/10/15 06:00:18;;;;;;;2.97;1.40;;;10.50;85.10;;;;;;4976173;28;20446;-75
2023/10/15 06:02:45;;;;;;;4.20;1.50;;;10.50;85.30;;;;;;4976285;28;20433;-75
2023/10/15 06:05:13;;;;;;;2.23;1.23;;;10.60;84.60;;;;;;4976663;28;20821;-74
2023/10/15 06:07:40;;;;;;;3.47;1.70;;;10.60;85.00;;;;;;4975907;28;20488;-75
2023/10/15 06:10:08;;;;;;;2.00;1.10;;;10.60;85.00;;;;;;4976045;28;20446;-75
2023/10/15 06:12:34;;;;;;;2.60;1.40;;;10.60;84.80;;;;;;4975902;28;20453;-75
2023/10/15 06:15:01;;;;;;;2.77;1.20;;;10.70;84.80;;;;;;4975508;28;20477;-75
2023/10/15 06:17:29;;;;;;;2.13;1.10;;;10.80;84.70;;;;;;4975727;28;20870;-75
2023/10/15 06:19:56;;;;;;;4.87;1.37;;;10.80;84.20;;;;;;4975791;28;20505;-75
2023/10/15 06:22:23;;;;;;;3.33;1.50;;;10.90;84.40;;;;;;4975450;28;20958;-74
2023/10/15 06:24:49;;;;;;;2.43;1.30;;;10.90;83.90;;;;;;4975449;28;20537;-75
2023/10/15 06:27:18;;;;;;;3.50;1.40;;;11.00;83.50;;;;;;4975554;28;20486;-75
2023/10/15 06:29:44;;;;;;;3.40;1.13;;;11.00;83.50;;;;;;4975306;28;20935;-75
2023/10/15 06:32:11;;;;;;;2.33;1.30;;;11.10;83.70;;;;;;4975856;28;20509;-75
2023/10/15 06:34:39;;;;;;;4.20;1.80;;;11.20;83.50;;;;;;4975651;28;20478;-75
2023/10/15 06:37:08;;;;;;;2.93;1.73;;;11.30;83.00;;;;;;4975632;28;20445;-75
2023/10/15 06:39:34;;;;;;;2.00;1.20;;;11.30;82.70;;;;;;4975166;28;20837;-75
2023/10/15 06:42:01;;;;;;;2.77;1.37;;;11.30;82.80;;;;;;4975520;28;20446;-75
2023/10/15 06:44:28;;;;;;;3.33;1.20;;;11.30;82.80;;;;;;4975333;28;20474;-75
2023/10/15 06:46:56;;;;;;;2.70;1.50;;;11.40;82.90;;;;;;4975287;28;20492;-75
2023/10/15 06:49:22;;;;;;;2.10;1.37;;;11.40;82.50;;;;;;4975269;28;20454;-75
2023/10/15 06:51:51;;;;;;;3.37;1.47;;;11.50;82.50;;;;;;4975176;28;20453;-75
2023/10/15 06:54:17;;;;;;;2.23;1.13;;;11.50;82.50;;;;;;4975030;28;20979;-75
2023/10/15 06:56:44;;;;;;;3.07;1.40;;;11.60;82.60;;;;;;4974853;28;20962;-75
2023/10/15 06:59:11;;;;;;;3.20;1.13;;;11.70;82.30;;;;;;4974562;28;20490;-75
2023/10/15 07:01:38;;;;;;;2.40;1.13;;;11.60;82.00;;;;;;4975205;28;20481;-75
2023/10/15 07:04:07;;;;;;;2.27;1.33;;;11.70;82.30;;;;;;4975784;28;20506;-75
2023/10/15 07:06:34;;;;;;;3.23;1.50;;;11.60;81.50;;;;;;4975313;28;20445;-75
2023/10/15 07:09:02;;;;;;;2.20;1.40;;;11.60;82.30;;;;;;4974865;28;20486;-75
2023/10/15 07:11:29;;;;;;;4.03;1.63;;;11.70;82.30;;;;;;4974925;28;20485;-75
2023/10/15 07:13:56;;;;;;;2.10;1.20;;;11.80;82.50;;;;;;4974422;28;21002;-75
2023/10/15 07:16:24;;;;;;;2.20;1.20;;;12.10;81.90;;;;;;4974864;28;20823;-75
2023/10/15 07:18:51;;;;;;;2.63;1.40;;;12.20;80.30;;;;;;4974696;28;20553;-75
2023/10/15 07:21:19;;;;;;;2.30;1.20;;;12.30;79.90;;;;;;4974476;28;20819;-75
2023/10/15 07:23:46;;;;;;;2.90;1.67;;;12.30;79.70;;;;;;4974496;28;20877;-75
2023/10/15 07:26:15;;;;;;;4.13;1.50;;;12.30;79.60;;;;;;4974649;28;20470;-75
2023/10/15 07:28:41;;;;;;;2.60;1.70;;;12.30;79.50;;;;;;4974262;28;21041;-76
2023/10/15 07:31:08;;;;;;;3.77;1.97;;;12.30;79.50;;;;;;4974592;28;20450;-76
2023/10/15 07:33:34;;;;;;;2.20;1.60;;;12.40;80.40;;;;;;4974560;28;20470;-76
2023/10/15 07:36:02;;;;;;;2.50;1.37;;;12.90;79.10;;;;;;4974543;28;20453;-76
2023/10/15 07:38:28;;;;;;;2.90;1.97;;;13.10;77.00;;;;;;4974512;28;20206;-76
2023/10/15 07:40:55;;;;;;;3.27;2.03;;;13.10;76.10;;;;;;4974478;28;20446;-76
2023/10/15 07:43:23;;;;;;;2.90;1.70;;;13.00;76.40;;;;;;4974409;28;20508;-76
2023/10/15 07:45:50;;;;;;;2.33;1.50;;;13.20;76.40;;;;;;4974466;28;20453;-76
2023/10/15 07:48:17;;;;;;;2.50;1.50;;;13.80;75.80;;;;;;4974453;28;20573;-76
2023/10/15 07:50:45;;;;;;;2.90;1.60;;;14.10;73.00;;;;;;4974416;28;20446;-74
2023/10/15 07:53:12;;;;;;;2.53;1.37;;;14.40;73.30;;;;;;4974448;28;20840;-76
2023/10/15 07:55:39;;;;;;;3.30;1.70;;;14.70;70.70;;;;;;4974004;28;20967;-76
2023/10/15 07:58:09;;;;;;;2.47;1.70;;;14.90;71.50;;;;;;4974285;28;20450;-76
2023/10/15 08:00:37;;;;;;;2.80;1.50;;;14.90;70.20;;;;;;4974449;28;20541;-76
2023/10/15 08:03:07;;;;;;;2.80;1.40;;;15.20;72.40;;;;;;4974549;28;20445;-76
2023/10/15 08:05:36;;;;;;;2.97;1.60;;;15.40;69.10;;;;;;4974715;28;20501;-75
2023/10/15 08:08:04;;;;;;;2.30;1.40;;;15.60;70.20;;;;;;4973820;28;20903;-76
2023/10/15 08:10:34;;;;;;;6.43;2.03;;;15.70;68.50;;;;;;4975906;28;20473;-76
2023/10/15 08:13:01;;;;;;;2.93;1.83;;;15.70;70.50;;;;;;4977780;28;20460;-75
2023/10/15 08:15:28;;;;;;;5.30;1.90;;;16.00;69.60;;;;;;4977864;28;20970;-76
2023/10/15 08:17:57;;;;;;;3.20;2.03;;;16.40;68.50;;;;;;4978048;28;20865;-76
2023/10/15 08:20:23;;;;;;;2.67;1.67;;;16.50;67.00;;;;;;4977999;28;20454;-76
2023/10/15 08:22:50;;;;;;;2.83;1.33;;;16.20;66.90;;;;;;4977901;28;20833;-76
2023/10/15 08:25:21;;;;;;;2.90;1.67;;;16.10;68.10;;;;;;4977941;28;20461;-76
2023/10/15 08:27:48;;;;;;;3.23;1.37;;;16.00;68.50;;;;;;4977748;28;20500;-76
2023/10/15 08:30:17;;;;;;;5.33;2.00;;;15.40;65.90;;;;;;4978490;28;20504;-76
2023/10/15 08:32:45;;;;;;;4.13;2.70;;;14.80;67.80;;;;;;4978032;28;20845;-76
2023/10/15 08:35:14;;;;;;;2.67;1.70;;;14.50;68.40;;;;;;4977586;28;20466;-76
2023/10/15 08:37:41;;;;;;;3.30;1.57;;;14.30;68.90;;;;;;4977564;28;20465;-76
2023/10/15 08:40:15;;;;;;;3.50;1.50;;;14.00;69.90;;;;;;4978673;28;20504;-76
2023/10/15 08:42:48;;;;;;;3.13;1.30;;;13.80;70.80;;;;;;4978158;28;20445;-76
2023/10/15 08:45:18;;;;;;;2.33;1.30;;;13.60;70.60;;;;;;4977597;28;20465;-76
2023/10/15 08:47:47;;;;;;;2.40;1.30;;;13.70;72.30;;;;;;4977183;28;20888;-76
2023/10/15 08:50:20;;;;;;;2.63;1.37;;;13.80;71.20;;;;;;4977530;28;20452;-76
2023/10/15 08:52:47;;;;;;;5.17;1.80;;;13.90;71.20;;;;;;4977458;28;20438;-75
2023/10/15 08:55:14;;;;;;;2.93;1.70;;;13.90;71.40;;;;;;4977418;28;20477;-76
2023/10/15 08:57:42;;;;;;;2.50;1.77;;;13.90;70.60;;;;;;4977139;28;20842;-76
2023/10/15 09:00:25;;;;;;;3.73;1.80;;;13.90;71.00;;;;;;4977291;28;20446;-76
2023/10/15 09:02:53;;;;;;;2.33;1.30;;;13.70;70.50;;;;;;4977316;28;20497;-76
2023/10/15 09:05:22;;;;;;;2.63;1.20;;;13.80;71.40;;;;;;4977094;28;20462;-74
2023/10/15 09:07:50;;;;;;;2.30;1.10;;;14.00;72.10;;;;;;4977013;28;20581;-74
2023/10/15 09:10:17;;;;;;;2.60;1.23;;;14.00;70.70;;;;;;4977024;28;20449;-74
2023/10/15 09:12:44;;;;;;;2.60;1.50;;;14.00;69.60;;;;;;4977042;28;20453;-73
2023/10/15 09:15:16;;;;;;;2.50;1.37;;;14.10;69.40;;;;;;4976678;28;20481;-73
2023/10/15 09:17:42;;;;;;;2.70;1.50;;;13.80;69.50;;;;;;4976998;28;20517;-75
2023/10/15 09:20:10;;;;;;;3.80;2.40;;;13.50;68.60;;;;;;4976958;28;20813;-75
2023/10/15 09:22:38;;;;;;;2.33;1.23;;;13.30;69.60;;;;;;4976466;28;20449;-75
2023/10/15 09:25:07;;;;;;;3.80;1.87;;;13.10;70.80;;;;;;4976780;28;20462;-74
2023/10/15 09:27:33;;;;;;;2.47;1.30;;;13.00;70.80;;;;;;4976854;28;20445;-75
2023/10/15 09:30:14;;;;;;;2.63;1.60;;;12.70;71.30;;;;;;4976696;28;20454;-75
2023/10/15 09:32:43;;;;;;;2.73;1.67;;;12.50;72.10;;;;;;4976784;28;20434;-75
2023/10/15 09:35:10;;;;;;;2.17;1.40;;;12.40;72.80;;;;;;4976642;28;20557;-75
2023/10/15 09:37:39;;;;;;;2.53;1.20;;;12.30;73.00;;;;;;4976345;28;20489;-75
2023/10/15 09:40:09;;;;;;;3.43;1.20;;;12.30;72.80;;;;;;4976654;28;20989;-75
2023/10/15 09:42:37;;;;;;;2.77;1.60;;;12.10;72.30;;;;;;4976486;28;20450;-75
2023/10/15 09:45:05;;;;;;;3.90;1.30;;;11.90;73.60;;;;;;4976394;28;20478;-75
2023/10/15 09:47:33;;;;;;;2.67;1.30;;;12.00;74.30;;;;;;4976299;28;20461;-75
2023/10/15 09:50:01;;;;;;;2.57;1.20;;;12.10;74.10;;;;;;4976471;28;20457;-74
2023/10/15 09:52:29;;;;;;;3.23;1.80;;;12.00;74.50;;;;;;4976394;28;20473;-75
2023/10/15 09:54:58;;;;;;;2.73;1.50;;;12.00;74.20;;;;;;4976394;28;20470;-75
2023/10/15 09:57:26;;;;;;;4.00;1.53;;;12.20;75.00;;;;;;4976483;28;20449;-75
2023/10/15 09:59:54;;;;;;;3.60;1.47;;;12.20;73.80;;;;;;4976153;28;20843;-73
2023/10/15 10:02:27;;;;;;;2.90;1.43;;;12.40;74.10;;;;;;4975984;28;20973;-74
2023/10/15 10:05:16;;;;;;;2.83;1.60;;;12.60;73.40;;;;;;4976657;28;20469;-75
2023/10/15 10:07:58;;;;;;;2.70;1.17;;;12.80;72.50;;;;;;4976129;28;20501;-74
2023/10/15 10:11:04;;;;;;;3.60;1.57;;;12.70;70.80;;;;;;4976246;28;20803;-75
2023/10/15 10:14:03;;;;;;;3.43;1.17;;;12.70;71.10;;;;;;4916139;29;20471;-75
2023/10/15 10:16:31;;;;;;;3.50;1.60;;;12.80;70.50;;;;;;4971048;28;20508;-75
2023/10/15 10:18:58;;;;;;;3.40;1.20;;;12.70;70.00;;;;;;4975845;28;20500;-75
2023/10/15 10:21:29;;;;;;;2.63;1.37;;;12.80;69.10;;;;;;4975829;28;20558;-76
2023/10/15 10:23:58;;;;;;;2.20;1.10;;;12.90;68.00;;;;;;4975673;28;20493;-76
2023/10/15 10:26:28;;;;;;;2.37;0.73;;;13.00;66.60;;;;;;4975807;28;20449;-74
2023/10/15 10:28:56;;;;;;;1.90;0.80;;;13.00;64.60;;;;;;4975604;28;20485;-74
2023/10/15 10:31:23;;;;;;;2.00;1.00;;;13.00;64.70;;;;;;4975761;28;20496;-75
2023/10/15 10:33:53;;;;;;;3.00;0.90;;;13.00;63.80;;;;;;4974547;28;20967;-76
2023/10/15 10:36:22;;;;;;;2.00;0.77;;;13.10;62.50;;;;;;4975482;28;20430;-75
2023/10/15 10:39:00;;;;;;;2.93;1.10;;;13.10;62.30;;;;;;4975398;28;20442;-75
2023/10/15 10:41:37;;;;;;;2.20;0.97;;;13.20;62.90;;;;;;4975475;28;20481;-74
2023/10/15 10:44:05;;;;;;;3.37;0.97;;;13.30;62.00;;;;;;4975915;28;20497;-74
2023/10/15 10:46:41;;;;;;;1.80;1.00;;;13.50;62.70;;;;;;4975166;28;21014;-75
2023/10/15 10:49:13;;;;;;;2.60;1.00;;;13.60;61.50;;;;;;4975295;28;20465;-75
2023/10/15 10:51:40;;;;;;;2.80;1.17;;;13.70;62.30;;;;;;4975865;28;20438;-75
2023/10/15 10:54:25;;;;;;;1.93;0.87;;;13.80;61.20;;;;;;4975504;28;20999;-75
2023/10/15 10:57:09;;;;;;;1.70;0.90;;;13.90;60.00;;;;;;4975510;28;20502;-75
2023/10/15 10:59:38;;;;;;;2.13;1.00;;;14.00;61.00;;;;;;4975110;28;20426;-75
2023/10/15 11:02:11;;;;;;;2.80;1.00;;;14.10;60.90;;;;;;4975187;28;20563;-75
2023/10/15 11:04:38;;;;;;;4.90;1.40;;;14.00;61.20;;;;;;4975154;28;20504;-75
2023/10/15 11:07:05;;;;;;;1.87;0.90;;;13.80;60.10;;;;;;4975021;28;20454;-75
2023/10/15 11:09:32;;;;;;;2.37;1.17;;;13.70;60.90;;;;;;4974772;28;20474;-74
2023/10/15 11:11:58;;;;;;;1.97;0.90;;;13.50;61.50;;;;;;4975081;28;20958;-75
2023/10/15 11:14:27;;;;;;;3.03;1.00;;;13.40;62.30;;;;;;4974994;28;20478;-73
2023/10/15 11:16:55;;;;;;;1.90;0.80;;;13.40;62.30;;;;;;4975249;28;20484;-73
2023/10/15 11:19:24;;;;;;;2.00;0.90;;;13.30;62.30;;;;;;4975311;28;20541;-74
2023/10/15 11:21:52;;;;;;;2.30;1.40;;;13.30;64.40;;;;;;4974999;28;20447;-76
2023/10/15 11:24:20;;;;;;;3.50;1.60;;;13.30;66.30;;;;;;4975263;28;20897;-76
2023/10/15 11:26:47;;;;;;;2.10;0.97;;;13.30;67.50;;;;;;4974689;28;20967;-73
2023/10/15 11:29:18;;;;;;;2.63;1.00;;;13.10;68.40;;;;;;4974957;28;20485;-72
2023/10/15 11:31:48;;;;;;;1.87;1.00;;;13.00;71.70;;;;;;4974901;28;20943;-74
2023/10/15 11:37:16;;;;;;;2.00;0.90;;;12.90;70.20;;;;;;4965359;28;20450;-75
2023/10/15 11:39:47;;;;;;;2.70;1.10;;;13.00;69.50;;;;;;4974948;28;20431;-75
2023/10/15 11:42:16;;;;;;;1.90;1.00;;;12.90;69.40;;;;;;4975383;28;20512;-75
2023/10/15 11:44:45;;;;;;;2.20;0.87;;;12.80;68.00;;;;;;4978363;28;20553;-74
2023/10/15 11:47:16;;;;;;;1.77;0.90;;;12.70;66.50;;;;;;4981056;28;20446;-75
2023/10/15 11:49:43;;;;;;;1.70;0.70;;;12.60;67.40;;;;;;4981434;28;20552;-75
2023/10/15 11:52:14;;;;;;;2.90;1.10;;;12.60;66.30;;;;;;4981123;28;20450;-75
2023/10/15 11:54:43;;;;;;;2.80;1.00;;;12.60;66.70;;;;;;4981280;28;20470;-75
2023/10/15 11:57:16;;;;;;;2.07;0.90;;;12.60;66.70;;;;;;4980927;28;20445;-75
2023/10/15 11:59:43;;;;;;;3.67;1.10;;;12.70;67.20;;;;;;4980589;28;20974;-75
2023/10/15 12:02:11;;;;;;;3.07;1.10;;;12.70;68.40;;;;;;4980805;28;20450;-74
2023/10/15 12:04:39;;;;;;;2.27;1.00;;;12.80;67.20;;;;;;4981010;28;20569;-75
2023/10/15 12:07:15;;;;;;;2.30;0.80;;;12.70;66.90;;;;;;4981280;28;20462;-75
2023/10/15 12:09:44;;;;;;;1.63;0.70;;;12.80;66.00;;;;;;4980881;28;20465;-75
2023/10/15 12:12:11;;;;;;;2.10;1.00;;;12.90;66.40;;;;;;4980795;28;20449;-75
2023/10/15 12:14:38;;;;;;;1.80;0.90;;;13.20;66.00;;;;;;4980626;28;20474;-75
2023/10/15 12:17:04;;;;;;;1.80;0.90;;;13.80;64.80;;;;;;4980634;28;20481;-75
2023/10/15 12:19:31;;;;;;;1.90;0.97;;;13.90;62.80;;;;;;4980549;28;20833;-75
2023/10/15 12:21:59;;;;;;;2.17;1.20;;;13.90;63.50;;;;;;4980796;28;20461;-75
2023/10/15 12:24:26;;;;;;;2.40;1.30;;;14.30;61.90;;;;;;4980746;28;20481;-75
2023/10/15 12:26:53;;;;;;;1.70;0.90;;;14.50;60.40;;;;;;4980723;28;20524;-75
2023/10/15 12:29:28;;;;;;;2.73;0.93;;;14.60;59.00;;;;;;4980407;28;20878;-75
2023/10/15 12:31:55;;;;;;;2.10;1.00;;;14.80;60.00;;;;;;4981128;28;20514;-74
2023/10/15 12:34:22;;;;;;;2.10;0.90;;;15.10;59.50;;;;;;4980717;28;20528;-74
2023/10/15 12:36:50;;;;;;;1.93;0.83;;;15.20;59.80;;;;;;4981692;28;20892;-72
2023/10/15 12:39:21;;;;;;;2.53;1.10;;;15.40;58.00;;;;;;4980915;28;20453;-74
2023/10/15 12:41:50;;;;;;;2.60;1.00;;;15.80;58.90;;;;;;4980837;28;20437;-73
2023/10/15 12:44:17;;;;;;;2.17;1.07;;;16.20;57.50;;;;;;4980874;28;20562;-74
2023/10/15 12:46:44;;;;;;;1.80;0.80;;;16.50;57.20;;;;;;4981064;28;20457;-73
2023/10/15 12:49:11;;;;;;;1.80;1.07;;;16.90;57.20;;;;;;4981543;28;20497;-74
2023/10/15 12:51:38;;;;;;;1.87;0.90;;;17.00;55.90;;;;;;4980504;28;20445;-74
2023/10/15 12:54:05;;;;;;;2.20;1.13;;;17.20;55.50;;;;;;4980276;28;20476;-74
2023/10/15 12:56:33;;;;;;;4.50;1.20;;;17.30;55.00;;;;;;4978288;28;20824;-76
2023/10/15 12:59:00;;;;;;;2.47;1.27;;;17.10;55.50;;;;;;4977872;28;20494;-75
2023/10/15 13:01:27;;;;;;;2.90;0.87;;;17.00;55.50;;;;;;4977969;28;20442;-74
2023/10/15 13:03:54;;;;;;;5.83;1.50;;;16.60;54.80;;;;;;4977525;28;20468;-74
2023/10/15 13:06:20;;;;;;;2.23;0.87;;;16.10;54.80;;;;;;4978169;28;20536;-74
2023/10/15 13:08:47;;;;;;;2.03;1.03;;;15.80;55.50;;;;;;4977184;28;20446;-75
2023/10/15 13:11:14;;;;;;;2.63;0.93;;;15.30;56.00;;;;;;4977254;28;20450;-75
2023/10/15 13:13:42;;;;;;;2.03;0.90;;;15.00;56.40;;;;;;4976987;28;20481;-74
2023/10/15 13:16:09;;;;;;;2.00;0.80;;;15.00;57.00;;;;;;4977034;28;20473;-73
2023/10/15 13:18:38;;;;;;;2.00;0.90;;;15.80;56.70;;;;;;4977350;28;20472;-73
2023/10/15 13:21:06;;;;;;;1.97;0.70;;;16.90;55.00;;;;;;4977795;28;20450;-74
2023/10/15 13:23:32;;;;;;;2.77;1.10;;;18.20;52.20;;;;;;4976993;28;20470;-74
2023/10/15 13:25:59;;;;;;;2.03;0.80;;;19.50;48.40;;;;;;4976933;28;20524;-74
2023/10/15 13:28:26;;;;;;;1.70;0.80;;;21.40;45.60;;;;;;4976782;28;20442;-73
2023/10/15 13:30:55;;;;;;;2.47;1.20;;;22.90;42.30;;;;;;4976759;28;20524;-73
2023/10/15 13:33:22;;;;;;;2.00;0.93;;;23.90;39.80;;;;;;4976414;28;21030;-72
2023/10/15 13:35:48;;;;;;;2.60;1.07;;;24.70;39.00;;;;;;4976536;28;20446;-74
2023/10/15 13:38:15;;;;;;;1.80;0.80;;;26.10;36.80;;;;;;4976647;28;20450;-74
2023/10/15 13:40:43;;;;;;;2.10;1.03;;;27.50;33.60;;;;;;4976402;28;20445;-74
2023/10/15 13:43:09;;;;;;;2.00;1.10;;;27.80;32.20;;;;;;4976252;28;20454;-73
2023/10/15 13:45:37;;;;;;;1.80;1.00;;;27.50;32.00;;;;;;4976350;28;20450;-73
2023/10/15 13:48:06;;;;;;;2.53;1.00;;;25.20;34.30;;;;;;4976293;28;20500;-73
2023/10/15 13:50:34;;;;;;;2.10;1.20;;;23.40;37.40;;;;;;4976274;28;20482;-73
2023/10/15 13:53:01;;;;;;;2.10;1.27;;;22.60;38.70;;;;;;4976148;28;20505;-73
2023/10/15 13:55:27;;;;;;;3.10;1.50;;;21.80;39.80;;;;;;4976265;28;20446;-74
2023/10/15 13:57:54;;;;;;;1.77;0.70;;;20.70;41.20;;;;;;4976073;28;20454;-72
2023/10/15 14:00:21;;;;;;;1.60;0.77;;;20.70;42.30;;;;;;4976045;28;20438;-72
2023/10/15 14:02:49;;;;;;;2.17;0.90;;;21.30;40.20;;;;;;4975858;28;20450;-72
2023/10/15 14:05:18;;;;;;;1.83;0.90;;;21.30;41.00;;;;;;4975911;28;20504;-72
2023/10/15 14:07:45;;;;;;;2.10;0.80;;;21.50;40.40;;;;;;4974781;28;20508;-72
2023/10/15 14:10:12;;;;;;;2.20;0.70;;;23.10;38.70;;;;;;4975821;28;20540;-73
2023/10/15 14:12:39;;;;;;;1.77;0.90;;;24.80;35.30;;;;;;4975841;28;20449;-74
2023/10/15 14:15:10;;;;;;;3.00;0.90;;;25.80;34.40;;;;;;4975280;28;20860;-74
2023/10/15 14:17:37;;;;;;;2.33;0.90;;;27.00;32.30;;;;;;4975811;28;20848;-74
2023/10/15 14:20:09;;;;;;;2.80;0.90;;;27.60;31.20;;;;;;4975938;28;20437;-74
2023/10/15 14:22:37;;;;;;;1.63;0.90;;;27.80;30.70;;;;;;4976212;28;20451;-74
2023/10/15 14:25:05;;;;;;;1.70;0.80;;;27.70;30.70;;;;;;4975247;28;20840;-74
2023/10/15 14:27:32;;;;;;;2.10;0.90;;;27.10;29.80;;;;;;4975479;28;20450;-74
2023/10/15 14:30:00;;;;;;;2.23;0.90;;;27.70;30.80;;;;;;4975351;28;20492;-73
2023/10/15 14:32:27;;;;;;;1.87;0.73;;;28.10;30.00;;;;;;4975415;28;20884;-73
2023/10/15 14:34:54;;;;;;;1.63;0.70;;;28.40;29.30;;;;;;4975012;28;20462;-73
2023/10/15 14:37:20;;;;;;;1.90;0.80;;;28.50;29.50;;;;;;4974897;28;20454;-73
2023/10/15 14:39:49;;;;;;;2.23;0.97;;;28.10;29.60;;;;;;4975249;28;20529;-73
2023/10/15 14:42:16;;;;;;;2.00;0.90;;;28.30;29.20;;;;;;4975266;28;20546;-73
2023/10/15 14:44:42;;;;;;;1.50;0.87;;;28.20;29.50;;;;;;4975084;28;20497;-73
2023/10/15 14:47:09;;;;;;;1.80;0.80;;;27.80;29.60;;;;;;4975094;28;20446;-73
2023/10/15 14:49:36;;;;;;;2.10;0.80;;;27.30;30.50;;;;;;4975058;28;20478;-73
2023/10/15 14:52:04;;;;;;;6.67;6.00;;;26.40;30.90;;;;;;4974990;28;20457;-73
2023/10/15 14:54:31;;;;;;;2.67;1.77;;;24.50;32.90;;;;;;4974983;28;20498;-73
2023/10/15 14:57:00;;;;;;;2.20;1.50;;;22.90;35.20;;;;;;4974667;28;20943;-73
2023/10/15 14:59:27;;;;;;;2.07;1.27;;;21.30;37.20;;;;;;4975058;28;20454;-73
2023/10/15 15:01:54;;;;;;;2.10;1.10;;;21.70;37.80;;;;;;4974858;28;20508;-73
2023/10/15 15:04:27;;;;;;;1.73;0.80;;;22.90;36.70;;;;;;4975010;28;20466;-73
2023/10/15 15:06:54;;;;;;;2.10;1.10;;;22.80;36.30;;;;;;4974918;28;20525;-74
2023/10/15 15:09:22;;;;;;;1.70;0.80;;;21.60;38.10;;;;;;4974695;28;20445;-73
2023/10/15 15:11:49;;;;;;;2.03;0.90;;;20.20;39.50;;;;;;4974949;28;20457;-73
2023/10/15 15:14:17;;;;;;;2.37;0.90;;;19.00;41.30;;;;;;4974538;28;20473;-73
2023/10/15 15:16:44;;;;;;;2.03;0.90;;;18.30;43.10;;;;;;4974725;28;20442;-73
2023/10/15 15:19:11;;;;;;;1.93;0.90;;;17.80;44.70;;;;;;4974267;28;20446;-73
2023/10/15 15:21:38;;;;;;;2.20;1.03;;;17.20;45.70;;;;;;4974614;28;20450;-73
2023/10/15 15:24:06;;;;;;;4.33;1.00;;;16.70;47.10;;;;;;4974597;28;20565;-73
2023/10/15 15:26:33;;;;;;;2.30;0.80;;;16.30;47.90;;;;;;4974617;28;20455;-73
2023/10/15 15:28:59;;;;;;;1.87;0.97;;;16.00;48.80;;;;;;4974456;28;20485;-73
2023/10/15 15:31:27;;;;;;;1.97;0.80;;;15.70;49.30;;;;;;4974404;28;20486;-73
2023/10/15 15:33:54;;;;;;;2.27;1.30;;;15.40;50.00;;;;;;4974424;28;20469;-73
2023/10/15 15:36:21;;;;;;;2.27;0.93;;;15.20;50.60;;;;;;4974186;28;20446;-73
2023/10/15 15:38:48;;;;;;;1.80;0.80;;;15.00;50.40;;;;;;4974358;28;20457;-73
2023/10/15 15:41:15;;;;;;;2.30;1.00;;;14.80;50.50;;;;;;4974078;28;21002;-73
2023/10/15 15:43:41;;;;;;;2.07;0.90;;;14.70;51.10;;;;;;4974256;28;20466;-73
2023/10/15 15:46:10;;;;;;;2.00;1.00;;;14.60;51.40;;;;;;4974052;28;20446;-73
2023/10/15 15:48:38;;;;;;;2.27;0.83;;;14.50;51.50;;;;;;4974281;28;20446;-73
2023/10/15 15:51:06;;;;;;;2.00;0.97;;;14.40;52.20;;;;;;4973967;28;20477;-73
2023/10/15 15:53:35;;;;;;;2.20;0.80;;;14.30;52.00;;;;;;4974199;28;20517;-73
2023/10/15 15:56:02;;;;;;;1.93;1.03;;;14.30;51.90;;;;;;4974211;28;20449;-73
2023/10/15 15:58:28;;;;;;;1.80;1.00;;;14.10;51.70;;;;;;4974215;28;20453;-73
2023/10/15 16:00:55;;;;;;;1.80;0.80;;;14.00;51.80;;;;;;4974211;28;20446;-73
2023/10/15 16:03:22;;;;;;;1.70;0.80;;;13.90;51.20;;;;;;4973803;28;20939;-73
2023/10/15 16:05:59;;;;;;;1.77;0.90;;;13.80;51.80;;;;;;4974093;28;20964;-73
2023/10/15 16:08:26;;;;;;;1.97;1.00;;;13.70;51.80;;;;;;4974527;28;20422;-73
2023/10/15 16:10:56;;;;;;;2.60;1.03;;;13.60;52.00;;;;;;4974027;28;20497;-73
2023/10/15 16:13:22;;;;;;;2.10;1.10;;;13.60;52.20;;;;;;4973704;28;20502;-73
2023/10/15 16:15:49;;;;;;;2.00;0.90;;;13.60;52.40;;;;;;4974717;28;20804;-73
2023/10/15 16:18:16;;;;;;;1.70;0.90;;;13.60;53.00;;;;;;4974002;28;20450;-73
2023/10/15 16:20:42;;;;;;;1.73;0.93;;;13.60;54.30;;;;;;4973759;28;20882;-73
2023/10/15 16:23:10;;;;;;;1.90;1.00;;;13.60;53.40;;;;;;4973879;28;20827;-73
2023/10/15 16:25:37;;;;;;;1.97;1.00;;;13.50;53.30;;;;;;4974093;28;20453;-73
2023/10/15 16:28:06;;;;;;;2.07;0.87;;;13.40;53.00;;;;;;4974229;28;20529;-74
2023/10/15 16:30:33;;;;;;;1.70;0.90;;;13.40;54.30;;;;;;4973922;28;20488;-74
2023/10/15 16:32:59;;;;;;;1.70;0.80;;;13.30;54.50;;;;;;4977571;28;20446;-74
2023/10/15 16:35:28;;;;;;;1.70;0.83;;;13.30;54.50;;;;;;4977423;28;20473;-74
2023/10/15 16:37:55;;;;;;;2.00;0.80;;;13.20;54.60;;;;;;4977380;28;20808;-73
2023/10/15 16:40:23;;;;;;;1.70;0.80;;;13.10;54.90;;;;;;4977467;28;20467;-74
2023/10/15 16:42:50;;;;;;;2.57;0.90;;;13.10;55.70;;;;;;4977400;28;20450;-74
2023/10/15 16:45:18;;;;;;;2.93;0.90;;;13.00;55.70;;;;;;4977286;28;20470;-74
2023/10/15 16:47:44;;;;;;;2.57;0.90;;;13.00;56.50;;;;;;4977565;28;20545;-73
2023/10/15 16:50:11;;;;;;;3.27;0.90;;;12.90;56.90;;;;;;4977346;28;20532;-74
2023/10/15 16:52:38;;;;;;;2.00;1.03;;;12.90;56.10;;;;;;4977361;28;20441;-74
2023/10/15 16:55:06;;;;;;;1.90;1.10;;;12.80;57.50;;;;;;4977068;28;21029;-74
2023/10/15 16:57:34;;;;;;;2.50;1.23;;;12.70;58.10;;;;;;4977323;28;20501;-74